Time;durP1;ratioP1;P1;durP2;ratioP2;P2;SDS_P1;SDS_P2;PMS_P1;PMS_P2;Temp;Humidity;BMP_temperature;BMP_pressure;BME280_temperature;BME280_humidity;BME280_pressure;Samples;Min_cycle;Max_cycle;Signal;HPM_P1;HPM_P2
2022/08/02 00:00:34;;;;;;;3.70;3.40;;;18.50;99.90;20.20;96975.00;;;;5092404;28;20191;-83
2022/08/02 00:03:25;;;;;;;4.23;3.73;;;18.60;99.90;20.10;96964.00;;;;5089879;28;20898;-84
2022/08/02 00:06:13;;;;;;;3.70;3.33;;;18.60;99.90;19.70;96962.00;;;;5088219;28;20801;-83
2022/08/02 00:09:03;;;;;;;4.57;4.17;;;18.70;99.90;19.90;96967.00;;;;5092412;28;20566;-83
2022/08/02 00:11:52;;;;;;;4.90;4.00;;;18.70;99.90;19.70;96966.00;;;;5090954;28;20203;-83
2022/08/02 00:14:41;;;;;;;6.30;3.73;;;18.60;99.90;19.90;96966.00;;;;5079850;28;20608;-84
2022/08/02 00:17:30;;;;;;;4.20;3.83;;;18.60;99.90;20.10;96969.00;;;;5087294;28;20203;-83
2022/08/02 00:20:20;;;;;;;6.80;3.93;;;18.70;99.90;19.90;96967.00;;;;5091363;28;20563;-83
2022/08/02 00:23:09;;;;;;;3.63;3.37;;;18.70;99.90;19.60;96979.00;;;;5090869;28;20609;-84
2022/08/02 00:25:58;;;;;;;4.93;4.00;;;18.60;99.90;19.20;96996.00;;;;5092769;28;20223;-83
2022/08/02 00:28:47;;;;;;;3.90;3.60;;;18.50;99.90;19.60;96982.00;;;;5090266;28;20203;-83
2022/08/02 00:31:36;;;;;;;4.53;4.13;;;18.40;99.90;19.90;96981.00;;;;5086249;28;20602;-83
2022/08/02 00:34:25;;;;;;;3.27;3.07;;;18.50;99.90;20.00;96982.00;;;;5089617;28;20231;-84
2022/08/02 00:37:20;;;;;;;4.60;4.20;;;18.50;99.90;20.00;96986.00;;;;5083471;28;20195;-83
2022/08/02 00:40:10;;;;;;;4.30;3.90;;;18.60;99.90;19.80;96999.00;;;;5082293;28;20206;-84
2022/08/02 00:43:06;;;;;;;3.63;3.33;;;18.60;99.90;19.90;97012.00;;;;5079143;28;20634;-84
2022/08/02 00:45:55;;;;;;;4.10;3.70;;;18.60;99.90;20.10;97013.00;;;;5088817;28;20226;-83
2022/08/02 00:48:44;;;;;;;4.07;3.73;;;18.60;99.90;20.20;97011.00;;;;5087056;28;20226;-84
2022/08/02 00:51:32;;;;;;;4.00;3.70;;;18.60;99.90;20.20;97003.00;;;;5090458;28;20207;-83
2022/08/02 00:54:23;;;;;;;5.20;3.73;;;18.70;99.90;20.10;97009.00;;;;5091397;28;20215;-84
2022/08/02 00:57:11;;;;;;;5.53;3.37;;;18.70;99.90;20.10;97004.00;;;;5090825;28;20203;-83
2022/08/02 01:00:00;;;;;;;3.90;3.60;;;18.70;99.90;20.30;97003.00;;;;5090119;28;20199;-84
2022/08/02 01:02:49;;;;;;;5.73;3.53;;;18.80;99.90;20.30;97004.00;;;;5083188;28;20621;-84
2022/08/02 01:05:38;;;;;;;4.30;3.30;;;18.80;99.90;20.30;97007.00;;;;5088253;28;20234;-83
2022/08/02 01:08:40;;;;;;;3.60;3.30;;;18.80;99.90;20.40;97013.00;;;;5086294;28;20209;-83
2022/08/02 01:11:31;;;;;;;5.30;3.93;;;18.90;99.90;20.40;97010.00;;;;5089204;28;20202;-83
2022/08/02 01:14:21;;;;;;;3.93;3.37;;;18.90;99.90;20.30;97006.00;;;;5083782;28;20689;-84
2022/08/02 01:17:18;;;;;;;4.33;3.93;;;18.90;99.90;20.40;97005.00;;;;5084389;28;20568;-84
2022/08/02 01:20:20;;;;;;;3.60;3.30;;;19.00;99.90;20.10;97001.00;;;;5087421;28;20198;-83
2022/08/02 01:23:34;;;;;;;5.27;4.67;;;18.90;99.90;19.60;96993.00;;;;5088717;28;20231;-84
2022/08/02 01:26:39;;;;;;;4.03;3.73;;;18.80;99.90;19.90;96991.00;;;;5084066;28;20223;-84
2022/08/02 01:29:34;;;;;;;4.60;2.93;;;18.70;99.90;20.10;96985.00;;;;5079403;28;20194;-84
2022/08/02 01:32:30;;;;;;;3.27;2.97;;;18.70;99.90;20.00;96982.00;;;;5089929;28;20607;-83
2022/08/02 01:35:27;;;;;;;4.97;4.03;;;18.70;99.90;19.90;96980.00;;;;5090445;28;20202;-83
2022/08/02 01:38:24;;;;;;;3.40;3.10;;;18.70;99.90;19.70;96977.00;;;;5089697;28;20207;-83
2022/08/02 01:41:18;;;;;;;3.70;3.40;;;18.70;99.90;19.10;96973.00;;;;5087722;28;20210;-84
2022/08/02 01:44:09;;;;;;;4.17;3.33;;;18.60;99.90;19.40;96975.00;;;;5083940;28;20225;-84
2022/08/02 01:47:04;;;;;;;4.07;3.77;;;18.40;99.90;19.80;96980.00;;;;5084964;28;20211;-83
2022/08/02 01:49:58;;;;;;;4.30;3.40;;;18.40;99.90;19.90;96982.00;;;;5080936;28;20469;-83
2022/08/02 01:52:51;;;;;;;3.80;3.50;;;18.50;99.90;19.60;96980.00;;;;5087311;28;20215;-84
2022/08/02 01:55:45;;;;;;;6.67;3.80;;;18.50;99.90;19.10;96970.00;;;;5089885;28;20258;-85
2022/08/02 01:58:37;;;;;;;4.87;3.63;;;18.40;99.90;19.30;96969.00;;;;5084235;28;20593;-84
2022/08/02 02:01:26;;;;;;;4.03;3.70;;;18.30;99.90;19.50;96976.00;;;;5082327;28;20206;-84
2022/08/02 02:04:18;;;;;;;3.93;3.63;;;18.30;99.90;19.30;96964.00;;;;5085827;28;20233;-84
2022/08/02 02:07:08;;;;;;;4.40;3.20;;;18.30;99.90;19.50;96980.00;;;;5090108;28;20245;-84
2022/08/02 02:09:58;;;;;;;4.00;3.40;;;18.20;99.90;19.60;96976.00;;;;5090945;28;20216;-84
2022/08/02 02:12:50;;;;;;;4.00;3.60;;;18.20;99.90;19.70;96978.00;;;;5088794;28;20232;-84
2022/08/02 02:15:44;;;;;;;4.73;3.73;;;18.20;99.90;19.70;96980.00;;;;5079383;28;20243;-84
2022/08/02 02:18:39;;;;;;;4.53;3.33;;;18.30;99.90;19.80;96982.00;;;;5084003;28;20191;-84
2022/08/02 02:21:29;;;;;;;4.13;3.73;;;18.30;99.90;19.80;96973.00;;;;5084561;28;20204;-83
2022/08/02 02:24:18;;;;;;;4.00;3.70;;;18.30;99.90;19.80;96992.00;;;;5089281;28;20711;-83
2022/08/02 02:27:12;;;;;;;4.77;3.40;;;18.30;99.90;19.80;96989.00;;;;5089113;28;20219;-84
2022/08/02 02:30:01;;;;;;;3.43;3.23;;;18.30;99.90;19.80;97003.00;;;;5091112;28;20214;-84
2022/08/02 02:32:53;;;;;;;4.33;3.40;;;18.40;99.90;19.80;96999.00;;;;5087165;28;20227;-83
2022/08/02 02:35:43;;;;;;;3.40;3.10;;;18.40;99.90;19.70;96990.00;;;;5092555;28;20199;-83
2022/08/02 02:38:34;;;;;;;5.47;3.47;;;18.40;99.90;19.70;97001.00;;;;5093187;28;20195;-83
2022/08/02 02:41:25;;;;;;;3.67;3.37;;;18.40;99.90;19.70;96999.00;;;;5092038;28;20207;-84
2022/08/02 02:44:19;;;;;;;3.87;3.57;;;18.30;99.90;19.40;96985.00;;;;5092966;28;20568;-84
2022/08/02 02:47:10;;;;;;;3.60;3.30;;;18.30;99.90;19.30;96990.00;;;;5092091;28;20730;-83
2022/08/02 02:50:00;;;;;;;4.17;3.87;;;18.30;99.90;19.60;96980.00;;;;5087652;28;20214;-84
2022/08/02 02:52:50;;;;;;;4.40;4.00;;;18.20;99.90;19.70;96984.00;;;;5091493;28;20250;-83
2022/08/02 02:55:42;;;;;;;3.97;3.43;;;18.20;99.90;19.60;96988.00;;;;5092369;28;20199;-83
2022/08/02 02:58:31;;;;;;;4.80;4.40;;;18.30;99.90;19.50;96981.00;;;;5084383;28;20199;-83
2022/08/02 03:01:29;;;;;;;4.33;3.90;;;18.20;99.90;19.60;96976.00;;;;5082131;28;20196;-84
2022/08/02 03:04:20;;;;;;;3.80;3.50;;;18.20;99.90;19.70;96984.00;;;;5092814;28;20227;-84
2022/08/02 03:07:10;;;;;;;4.70;4.30;;;18.20;99.90;19.60;96976.00;;;;5088484;28;20230;-83
2022/08/02 03:09:58;;;;;;;3.83;3.53;;;18.20;99.90;19.50;96971.00;;;;5092254;28;20207;-83
2022/08/02 03:12:49;;;;;;;3.87;3.57;;;18.20;99.90;19.50;96970.00;;;;5091146;28;20221;-83
2022/08/02 03:15:40;;;;;;;6.00;3.50;;;18.20;99.90;19.60;96962.00;;;;5083546;28;20203;-83
2022/08/02 03:18:33;;;;;;;4.30;3.47;;;18.20;99.90;19.60;96965.00;;;;5091970;28;20199;-83
2022/08/02 03:21:23;;;;;;;3.50;3.20;;;18.20;99.90;19.40;96966.00;;;;5091469;28;20206;-83
2022/08/02 03:24:12;;;;;;;3.50;3.03;;;18.20;99.90;19.20;96963.00;;;;5085191;28;20223;-84
2022/08/02 03:27:01;;;;;;;4.27;3.87;;;18.20;99.90;19.00;96966.00;;;;5091265;28;20506;-83
2022/08/02 03:29:51;;;;;;;3.83;3.53;;;18.10;99.90;19.00;96963.00;;;;5090082;28;20219;-83
2022/08/02 03:32:43;;;;;;;3.87;3.60;;;18.00;99.90;19.20;96964.00;;;;5091845;28;20223;-83
2022/08/02 03:35:32;;;;;;;3.93;3.47;;;18.00;99.90;19.20;96958.00;;;;5092721;28;20202;-83
2022/08/02 03:38:24;;;;;;;3.90;3.60;;;18.00;99.90;19.40;96956.00;;;;5090934;28;20207;-83
2022/08/02 03:41:16;;;;;;;3.93;2.57;;;18.00;99.90;19.30;96952.00;;;;5090939;28;20191;-82
2022/08/02 03:44:07;;;;;;;3.67;3.37;;;18.00;99.90;19.30;96948.00;;;;5091629;28;20223;-83
2022/08/02 03:46:58;;;;;;;4.77;3.83;;;18.00;99.90;19.30;96943.00;;;;5087089;28;20215;-83
2022/08/02 03:49:47;;;;;;;4.50;3.00;;;18.00;99.90;19.40;96956.00;;;;5085651;28;20207;-84
2022/08/02 03:52:36;;;;;;;3.83;3.30;;;18.00;99.90;19.30;96954.00;;;;5086849;28;20207;-83
2022/08/02 03:55:26;;;;;;;4.00;3.67;;;18.00;99.90;19.30;96959.00;;;;5080062;28;20192;-84
2022/08/02 03:58:19;;;;;;;5.23;3.43;;;18.00;99.90;19.40;96952.00;;;;5091198;28;20196;-83
2022/08/02 04:01:07;;;;;;;3.93;3.67;;;18.00;99.90;19.30;96953.00;;;;5090481;28;20212;-83
2022/08/02 04:03:58;;;;;;;4.87;3.63;;;18.10;99.90;19.20;96959.00;;;;5084532;28;20223;-84
2022/08/02 04:06:46;;;;;;;4.50;4.10;;;18.10;99.90;18.70;96959.00;;;;5079740;28;20242;-84
2022/08/02 04:09:35;;;;;;;3.90;3.60;;;18.00;99.90;18.60;96961.00;;;;5092270;28;20199;-83
2022/08/02 04:12:24;;;;;;;4.23;3.73;;;17.80;99.90;19.10;96962.00;;;;5092037;28;20203;-83
2022/08/02 04:15:14;;;;;;;4.37;3.63;;;17.80;99.90;19.20;96972.00;;;;5074577;28;20208;-83
2022/08/02 04:18:04;;;;;;;4.13;3.77;;;17.90;99.90;19.10;96970.00;;;;5078988;28;20203;-83
2022/08/02 04:20:55;;;;;;;3.97;3.67;;;17.90;99.90;19.40;96980.00;;;;5090215;28;20210;-83
2022/08/02 04:23:47;;;;;;;6.83;3.90;;;17.90;99.90;19.40;96976.00;;;;5080534;28;20238;-83
2022/08/02 04:26:37;;;;;;;3.87;3.37;;;18.00;99.90;19.50;96997.00;;;;5076095;28;20736;-83
2022/08/02 04:29:27;;;;;;;4.70;3.70;;;18.00;99.90;19.30;96985.00;;;;5091150;28;20214;-83
2022/08/02 04:32:17;;;;;;;5.23;3.93;;;18.00;99.90;18.70;96988.00;;;;5090383;28;20714;-83
2022/08/02 04:35:07;;;;;;;4.60;3.93;;;17.90;99.90;18.80;96986.00;;;;5086121;28;20200;-84
2022/08/02 04:38:07;;;;;;;4.80;4.07;;;17.90;99.90;19.00;96993.00;;;;5083876;28;20195;-83
2022/08/02 04:40:58;;;;;;;5.87;4.27;;;17.80;99.90;19.20;97002.00;;;;5089764;28;20706;-84
2022/08/02 04:43:46;;;;;;;3.77;3.47;;;17.80;99.90;18.90;97001.00;;;;5086916;28;20219;-83
2022/08/02 04:46:36;;;;;;;5.47;3.80;;;17.80;99.90;18.90;97005.00;;;;5090820;28;20207;-83
2022/08/02 04:49:25;;;;;;;5.40;3.70;;;17.80;99.90;19.00;97001.00;;;;5092334;28;20195;-83
2022/08/02 04:52:14;;;;;;;5.10;4.43;;;17.80;99.90;19.10;97005.00;;;;5082679;28;20202;-82
2022/08/02 04:55:06;;;;;;;4.10;3.53;;;17.80;99.90;19.30;97001.00;;;;5084277;28;20202;-83
2022/08/02 04:57:55;;;;;;;4.10;3.53;;;17.90;99.90;18.90;97012.00;;;;5084283;28;20196;-84
2022/08/02 05:00:43;;;;;;;5.57;5.07;;;17.90;99.90;19.30;97003.00;;;;5082720;28;20203;-83
2022/08/02 05:03:32;;;;;;;4.53;4.13;;;17.90;99.90;19.60;97012.00;;;;5077714;28;20223;-84
2022/08/02 05:06:21;;;;;;;4.50;3.90;;;18.00;99.90;19.60;97009.00;;;;5079485;28;20189;-83
2022/08/02 05:09:10;;;;;;;4.10;3.77;;;18.10;99.90;19.50;97009.00;;;;5079416;28;20595;-83
2022/08/02 05:12:00;;;;;;;5.07;4.40;;;18.20;99.90;19.80;97015.00;;;;5080219;28;20199;-83
2022/08/02 05:14:49;;;;;;;4.13;3.73;;;18.20;99.90;19.70;97005.00;;;;5078076;28;20206;-84
2022/08/02 05:17:37;;;;;;;4.70;3.57;;;18.30;99.90;19.70;97002.00;;;;5086461;28;20200;-84
2022/08/02 05:20:26;;;;;;;3.83;3.53;;;18.30;99.90;19.70;97008.00;;;;5080417;28;20199;-83
2022/08/02 05:23:15;;;;;;;3.50;3.20;;;18.40;99.90;20.00;97015.00;;;;5078871;28;20223;-85
2022/08/02 05:26:04;;;;;;;4.53;2.97;;;18.50;99.90;20.10;97010.00;;;;5084667;28;20476;-83
2022/08/02 05:28:54;;;;;;;4.00;3.20;;;18.50;99.90;20.30;97011.00;;;;5079776;28;20216;-83
2022/08/02 05:31:44;;;;;;;3.93;3.50;;;18.60;99.90;20.50;97006.00;;;;5083702;28;20203;-83
2022/08/02 05:34:33;;;;;;;4.00;3.30;;;18.70;99.90;20.50;97007.00;;;;5103980;22;20237;-68
2022/08/02 05:37:22;;;;;;;4.33;3.50;;;18.80;99.90;20.70;97009.00;;;;5077494;28;20212;-68
2022/08/02 05:40:11;;;;;;;6.03;3.70;;;18.90;99.90;20.20;97000.00;;;;5075258;28;20200;-67
2022/08/02 05:43:00;;;;;;;4.60;4.20;;;19.00;99.90;20.20;97002.00;;;;5073289;28;20227;-69
2022/08/02 05:45:51;;;;;;;4.13;3.73;;;19.00;99.90;19.70;97014.00;;;;5057823;28;20214;-69
2022/08/02 05:48:40;;;;;;;4.07;3.77;;;18.90;99.90;20.00;97003.00;;;;5063915;28;20234;-67
2022/08/02 05:51:36;;;;;;;3.93;3.40;;;18.90;99.90;20.20;96999.00;;;;5058314;28;20840;-67
2022/08/02 05:54:37;;;;;;;3.87;3.57;;;19.00;99.90;20.40;97004.00;;;;5058933;28;20212;-67
2022/08/02 05:57:38;;;;;;;3.97;3.60;;;19.00;99.90;20.40;97003.00;;;;5061783;28;20845;-68
2022/08/02 06:00:31;;;;;;;3.53;3.23;;;19.10;99.90;20.70;97007.00;;;;5056884;28;20192;-68
2022/08/02 06:03:26;;;;;;;3.83;3.53;;;19.20;99.90;20.90;97011.00;;;;5055825;28;20243;-67
2022/08/02 06:06:19;;;;;;;4.27;3.17;;;19.30;99.90;20.90;97008.00;;;;5054636;28;20223;-67
2022/08/02 06:09:12;;;;;;;4.53;3.40;;;19.40;99.90;21.40;97008.00;;;;5064751;28;20588;-68
2022/08/02 06:12:03;;;;;;;3.77;3.20;;;19.50;99.90;21.30;97011.00;;;;5066908;28;20211;-68
2022/08/02 06:14:53;;;;;;;3.80;3.40;;;19.60;99.90;21.50;97010.00;;;;5063426;28;20200;-68
2022/08/02 06:17:43;;;;;;;4.97;3.20;;;19.70;99.90;21.40;97027.00;;;;5056962;28;20218;-67
2022/08/02 06:20:36;;;;;;;3.83;3.03;;;19.80;99.90;21.50;97021.00;;;;5058719;28;20196;-68
2022/08/02 06:23:27;;;;;;;4.17;3.50;;;20.00;99.90;21.80;97031.00;;;;5062297;28;20234;-68
2022/08/02 06:26:17;;;;;;;5.30;2.80;;;20.10;99.90;22.10;97031.00;;;;5056930;28;20211;-68
2022/08/02 06:29:06;;;;;;;3.43;3.13;;;20.20;99.90;22.10;97035.00;;;;5061794;28;20691;-68
2022/08/02 06:31:55;;;;;;;3.93;3.50;;;20.30;99.90;22.10;97034.00;;;;5068678;28;20200;-68
2022/08/02 06:34:44;;;;;;;5.17;3.20;;;20.50;99.90;22.10;97030.00;;;;5067162;28;20240;-68
2022/08/02 06:37:42;;;;;;;4.30;2.90;;;20.50;99.90;22.20;97035.00;;;;5067681;28;20200;-68
2022/08/02 06:40:34;;;;;;;3.67;3.30;;;20.70;99.90;22.30;97040.00;;;;5068046;28;20208;-68
2022/08/02 06:43:29;;;;;;;3.40;3.20;;;20.70;99.90;22.70;97041.00;;;;5057155;28;20212;-68
2022/08/02 06:46:18;;;;;;;4.67;2.90;;;20.80;99.90;23.00;97033.00;;;;5060278;28;20660;-68
2022/08/02 06:49:07;;;;;;;3.93;2.57;;;21.00;99.90;23.00;97038.00;;;;5068549;28;20232;-68
2022/08/02 06:51:56;;;;;;;5.70;2.90;;;21.10;99.90;23.20;97036.00;;;;5068814;28;20208;-68
2022/08/02 06:54:46;;;;;;;6.07;3.30;;;21.20;99.90;23.30;97035.00;;;;5065751;28;20746;-68
2022/08/02 06:57:35;;;;;;;3.67;2.90;;;21.40;99.90;23.50;97032.00;;;;5061701;28;20208;-68
2022/08/02 07:00:24;;;;;;;3.77;2.73;;;21.50;99.90;23.40;97031.00;;;;5069001;28;20211;-68
2022/08/02 07:03:13;;;;;;;4.40;2.67;;;21.60;99.90;23.30;97043.00;;;;5067350;28;20224;-68
2022/08/02 07:06:02;;;;;;;2.37;2.17;;;21.70;99.90;23.40;97043.00;;;;5067619;28;20231;-68
2022/08/02 07:08:50;;;;;;;3.80;3.00;;;21.70;99.90;23.70;97036.00;;;;5068072;28;20227;-68
2022/08/02 07:12:00;;;;;;;3.10;2.80;;;21.90;99.90;23.90;97042.00;;;;5068339;28;20211;-68
2022/08/02 07:14:48;;;;;;;4.50;3.03;;;22.10;99.90;24.40;97046.00;;;;5051819;28;20614;-68
2022/08/02 07:17:37;;;;;;;3.93;2.83;;;22.20;99.90;24.50;97040.00;;;;5055038;28;20203;-68
2022/08/02 07:20:26;;;;;;;3.43;2.70;;;22.40;99.90;24.40;97058.00;;;;5068320;28;20218;-68
2022/08/02 07:23:15;;;;;;;5.13;3.23;;;22.50;99.90;24.00;97059.00;;;;5069695;28;20228;-67
2022/08/02 07:26:04;;;;;;;3.87;2.33;;;22.50;99.90;24.20;97060.00;;;;5070367;28;20203;-67
2022/08/02 07:28:55;;;;;;;4.03;2.77;;;22.50;99.90;24.40;97050.00;;;;5068832;28;20224;-68
2022/08/02 07:31:43;;;;;;;5.23;2.50;;;22.60;99.90;24.70;97047.00;;;;5069532;28;20298;-67
2022/08/02 07:34:32;;;;;;;3.77;3.20;;;22.70;99.90;24.90;97058.00;;;;5060410;28;20232;-68
2022/08/02 07:37:23;;;;;;;4.00;2.63;;;22.90;99.90;25.10;97051.00;;;;5069427;28;20211;-68
2022/08/02 07:40:13;;;;;;;3.80;2.90;;;23.00;99.90;25.40;97047.00;;;;5070428;28;20204;-67
2022/08/02 07:43:03;;;;;;;6.33;2.93;;;23.30;99.90;25.80;97046.00;;;;5070057;28;20227;-68
2022/08/02 07:45:53;;;;;;;3.17;2.70;;;23.50;99.90;25.80;97050.00;;;;5070068;28;20212;-68
2022/08/02 07:48:43;;;;;;;5.67;2.97;;;23.70;99.90;25.40;97053.00;;;;5070401;28;20231;-68
2022/08/02 07:51:32;;;;;;;4.50;2.33;;;23.80;99.90;25.80;97047.00;;;;5068524;28;20706;-69
2022/08/02 07:54:21;;;;;;;3.97;3.03;;;23.90;99.90;26.00;97045.00;;;;5069285;28;20227;-68
2022/08/02 07:57:09;;;;;;;6.20;2.90;;;24.10;99.90;26.40;97040.00;;;;5063626;28;20868;-67
2022/08/02 07:59:58;;;;;;;7.87;2.37;;;24.30;99.90;26.70;97035.00;;;;5064736;28;20201;-67
2022/08/02 08:02:49;;;;;;;2.73;2.47;;;24.50;99.90;26.70;97045.00;;;;5065407;28;20218;-68
2022/08/02 08:05:37;;;;;;;4.37;2.50;;;24.70;99.90;26.70;97043.00;;;;5058001;28;20683;-67
2022/08/02 08:08:26;;;;;;;4.10;2.83;;;24.80;99.90;27.10;97042.00;;;;5059120;28;20675;-67
2022/08/02 08:11:15;;;;;;;4.57;2.27;;;24.90;99.90;27.00;97032.00;;;;5068938;28;20229;-69
2022/08/02 08:14:05;;;;;;;2.13;1.50;;;25.10;99.90;27.20;97038.00;;;;5059221;28;20555;-67
2022/08/02 08:16:54;;;;;;;3.03;1.63;;;25.20;99.90;27.20;97045.00;;;;5064128;28;20215;-68
2022/08/02 08:19:44;;;;;;;2.70;1.83;;;25.30;99.90;27.20;97034.00;;;;5062130;28;20577;-69
2022/08/02 08:22:33;;;;;;;3.00;2.20;;;25.40;99.90;27.70;97021.00;;;;5058102;28;20217;-68
2022/08/02 08:25:22;;;;;;;1.43;1.33;;;25.50;99.90;27.90;97035.00;;;;5061315;28;20672;-67
2022/08/02 08:28:11;;;;;;;2.00;1.80;;;25.80;99.90;28.00;97033.00;;;;5053402;28;20308;-67
2022/08/02 08:31:00;;;;;;;1.63;1.53;;;26.00;99.90;28.30;97025.00;;;;5061410;28;20692;-68
2022/08/02 08:33:49;;;;;;;2.00;1.70;;;26.30;99.90;28.70;97025.00;;;;5055586;28;20246;-68
2022/08/02 08:36:39;;;;;;;1.70;1.60;;;26.60;99.90;28.50;97048.00;;;;5061138;28;20204;-68
2022/08/02 08:39:28;;;;;;;3.30;1.87;;;26.70;99.60;28.60;97048.00;;;;5063158;28;20204;-67
2022/08/02 08:42:17;;;;;;;1.50;1.40;;;26.90;99.50;28.30;97070.00;;;;5059992;28;20694;-68
2022/08/02 08:45:08;;;;;;;1.77;1.60;;;26.80;98.10;27.60;97074.00;;;;5064159;28;20200;-68
2022/08/02 08:48:01;;;;;;;2.03;1.70;;;26.60;96.90;27.80;97084.00;;;;5059721;28;20681;-68
2022/08/02 08:50:54;;;;;;;1.60;1.33;;;26.70;97.40;27.60;97095.00;;;;5059439;28;20227;-68
2022/08/02 08:53:47;;;;;;;1.43;1.33;;;26.30;97.80;27.10;97096.00;;;;5054595;28;20605;-69
2022/08/02 08:56:36;;;;;;;1.40;1.30;;;26.10;97.40;27.00;97100.00;;;;5056897;28;20573;-68
2022/08/02 08:59:25;;;;;;;3.47;1.80;;;25.80;97.30;27.00;97109.00;;;;5067888;28;20211;-68
2022/08/02 09:02:14;;;;;;;1.90;1.63;;;25.60;97.70;27.20;97099.00;;;;5062098;28;20208;-67
2022/08/02 09:05:04;;;;;;;2.13;1.50;;;25.60;98.20;27.00;97101.00;;;;5061825;28;20863;-67
2022/08/02 09:07:54;;;;;;;1.50;1.40;;;25.50;98.30;26.90;97098.00;;;;5056201;28;20209;-68
2022/08/02 09:10:46;;;;;;;2.10;1.40;;;25.40;97.90;27.00;97106.00;;;;5053872;28;20226;-67
2022/08/02 09:13:35;;;;;;;2.53;1.80;;;25.30;98.30;26.90;97109.00;;;;5058792;28;20230;-67
2022/08/02 09:16:33;;;;;;;2.83;1.70;;;25.20;98.80;27.10;97105.00;;;;5057069;28;20194;-68
2022/08/02 09:19:24;;;;;;;1.50;1.40;;;25.20;99.10;26.40;97110.00;;;;5055083;28;20219;-68
2022/08/02 09:22:14;;;;;;;2.00;1.80;;;25.30;98.40;26.20;97105.00;;;;5059497;28;20208;-69
2022/08/02 09:25:05;;;;;;;2.67;1.40;;;25.20;97.40;26.70;97108.00;;;;5061572;28;20195;-68
2022/08/02 09:27:55;;;;;;;2.53;1.70;;;25.10;98.40;26.60;97112.00;;;;5061418;28;20202;-68
2022/08/02 09:30:45;;;;;;;2.77;2.53;;;25.10;98.50;27.00;97118.00;;;;5062403;28;20704;-68
2022/08/02 09:33:36;;;;;;;2.07;1.87;;;25.20;98.30;27.10;97114.00;;;;5059371;28;20242;-68
2022/08/02 09:36:26;;;;;;;1.90;1.63;;;25.20;98.40;26.40;97119.00;;;;5067504;28;20714;-67
2022/08/02 09:39:16;;;;;;;1.63;1.40;;;25.20;98.20;26.80;97107.00;;;;5058148;28;20216;-68
2022/08/02 09:42:10;;;;;;;4.33;1.97;;;25.20;97.90;27.00;97113.00;;;;5068218;28;20223;-68
2022/08/02 09:45:02;;;;;;;2.30;1.90;;;25.20;98.10;27.00;97109.00;;;;5065799;28;20251;-68
2022/08/02 09:47:51;;;;;;;2.23;1.83;;;25.30;97.60;27.10;97105.00;;;;5053208;28;20197;-68
2022/08/02 09:50:42;;;;;;;1.50;1.40;;;25.40;97.60;27.50;97106.00;;;;5058901;28;20227;-68
2022/08/02 09:53:31;;;;;;;3.13;2.20;;;25.40;98.00;26.20;97095.00;;;;5059352;28;20630;-68
2022/08/02 09:56:21;;;;;;;2.40;2.20;;;25.30;99.90;25.70;97096.00;;;;5057790;28;20887;-68
2022/08/02 09:59:11;;;;;;;2.57;1.80;;;25.00;99.90;25.30;97079.00;;;;5057979;28;20204;-69
2022/08/02 10:02:01;;;;;;;3.93;2.57;;;24.70;99.90;25.20;97082.00;;;;5058346;28;20192;-69
2022/08/02 10:04:50;;;;;;;8.63;6.93;;;24.60;99.90;25.30;97070.00;;;;5063400;28;20200;-68
2022/08/02 10:07:39;;;;;;;5.57;3.40;;;24.40;99.90;25.50;97085.00;;;;5068404;28;20196;-68
2022/08/02 10:10:28;;;;;;;6.03;3.40;;;24.40;99.90;25.40;97071.00;;;;5067168;28;20227;-67
2022/08/02 10:13:17;;;;;;;3.77;3.37;;;24.40;99.90;25.60;97070.00;;;;5057696;28;20235;-67
2022/08/02 10:16:07;;;;;;;3.43;3.10;;;24.40;99.90;25.50;97071.00;;;;5065118;28;20659;-69
2022/08/02 10:18:59;;;;;;;3.07;2.67;;;24.50;99.90;25.60;97068.00;;;;5064603;28;20577;-68
2022/08/02 10:21:54;;;;;;;3.70;2.77;;;24.60;99.90;26.00;97081.00;;;;5051354;28;20192;-67
2022/08/02 10:24:45;;;;;;;2.67;2.43;;;24.60;99.90;25.90;97070.00;;;;5066996;28;20223;-67
2022/08/02 10:27:36;;;;;;;2.00;1.77;;;24.70;99.90;26.00;97078.00;;;;5068339;28;20267;-68
2022/08/02 10:30:48;;;;;;;2.30;2.10;;;24.80;99.90;26.70;97071.00;;;;5059780;28;20283;-68
2022/08/02 10:33:39;;;;;;;3.10;2.50;;;25.00;99.90;26.40;97078.00;;;;5054113;28;20699;-65
2022/08/02 10:36:32;;;;;;;3.97;3.07;;;25.20;99.90;25.90;97068.00;;;;5059653;28;20353;-65
2022/08/02 10:39:21;;;;;;;4.37;2.97;;;25.10;99.90;26.70;97062.00;;;;5059148;28;20215;-65
2022/08/02 10:42:11;;;;;;;5.63;3.70;;;25.30;99.90;26.80;97062.00;;;;5069104;28;20212;-68
2022/08/02 10:45:10;;;;;;;2.60;2.13;;;25.40;99.90;26.50;97065.00;;;;5067247;28;20692;-68
2022/08/02 10:48:04;;;;;;;2.17;1.87;;;25.50;99.90;26.60;97064.00;;;;5064519;28;20207;-67
2022/08/02 10:50:54;;;;;;;3.57;2.80;;;25.50;99.90;26.80;97069.00;;;;5060691;28;20224;-68
2022/08/02 10:54:08;;;;;;;1.87;1.60;;;25.50;99.90;27.00;97069.00;;;;5071726;28;20615;-67
2022/08/02 10:56:59;;;;;;;2.60;2.10;;;25.60;99.90;27.10;97049.00;;;;5067715;28;20215;-68
2022/08/02 10:59:50;;;;;;;1.80;1.70;;;25.70;99.90;27.20;97056.00;;;;5071396;28;20207;-70
2022/08/02 11:02:42;;;;;;;2.10;1.90;;;25.80;99.90;27.60;97061.00;;;;5062755;28;20209;-66
2022/08/02 11:05:33;;;;;;;4.07;2.10;;;26.00;99.90;27.20;97032.00;;;;5065086;28;20204;-67
2022/08/02 11:08:23;;;;;;;1.67;1.57;;;26.00;99.90;27.50;97027.00;;;;5067492;28;20212;-69
2022/08/02 11:11:20;;;;;;;2.67;2.43;;;26.00;99.90;27.30;97044.00;;;;5062099;28;20229;-69
2022/08/02 11:14:14;;;;;;;2.40;1.60;;;26.10;99.90;28.30;97037.00;;;;5061193;28;20247;-70
2022/08/02 11:17:15;;;;;;;3.63;1.73;;;26.40;99.90;28.80;97027.00;;;;5062496;28;20198;-68
2022/08/02 11:20:21;;;;;;;1.63;1.50;;;26.60;99.70;30.40;96991.00;;;;5061340;28;20209;-68
2022/08/02 11:23:37;;;;;;;3.23;1.50;;;27.50;99.90;28.80;97011.00;;;;5057854;28;20229;-65
2022/08/02 11:26:46;;;;;;;1.50;1.40;;;27.90;98.70;29.70;96980.00;;;;5062626;28;20206;-71
2022/08/02 11:29:38;;;;;;;1.53;1.43;;;28.10;98.70;29.10;97014.00;;;;5060491;28;20215;-66
2022/08/02 11:32:27;;;;;;;3.07;1.20;;;28.20;96.40;29.00;96979.00;;;;5060100;28;20210;-68
2022/08/02 11:35:16;;;;;;;1.60;1.47;;;28.20;95.70;28.70;96978.00;;;;5065477;28;20592;-66
2022/08/02 11:38:20;;;;;;;3.47;1.60;;;28.10;95.20;29.70;96986.00;;;;5063272;28;20208;-68
2022/08/02 11:41:09;;;;;;;2.73;1.87;;;28.10;95.20;30.60;96977.00;;;;5060928;28;20200;-67
2022/08/02 11:43:59;;;;;;;1.77;1.67;;;28.40;94.70;30.80;96981.00;;;;5063284;28;20226;-69
2022/08/02 11:46:56;;;;;;;1.70;1.60;;;28.90;93.30;32.80;96971.00;;;;5064688;28;20690;-67
2022/08/02 11:49:45;;;;;;;2.53;1.90;;;29.60;94.30;34.00;97032.00;;;;5067132;28;20204;-68
2022/08/02 11:52:35;;;;;;;2.15;1.48;;;30.40;93.50;33.70;96983.00;;;;5057499;28;20662;-68
2022/08/02 11:55:28;;;;;;;1.55;1.42;;;30.80;91.90;34.80;96966.00;;;;5059083;28;20389;-68
2022/08/02 11:58:18;;;;;;;1.80;1.42;;;31.50;90.20;34.50;96963.00;;;;5058968;28;20399;-67
2022/08/02 12:01:09;;;;;;;1.40;1.30;;;32.10;85.50;33.50;97041.00;;;;5059656;28;20761;-69
2022/08/02 12:03:59;;;;;;;1.17;1.17;;;32.10;81.60;30.10;97040.00;;;;5056745;28;20219;-69
2022/08/02 12:06:57;;;;;;;1.52;1.42;;;31.00;78.30;29.90;97052.00;;;;5058213;28;20193;-69
2022/08/02 12:09:46;;;;;;;1.60;1.50;;;29.90;80.40;30.10;97049.00;;;;5058538;28;20206;-69
2022/08/02 12:12:47;;;;;;;1.48;1.33;;;29.40;85.90;30.20;97051.00;;;;5061391;28;20201;-69
2022/08/02 12:15:40;;;;;;;2.08;1.48;;;29.00;84.60;30.70;97054.00;;;;5069021;28;20209;-69
2022/08/02 12:21:37;;;;;;;2.23;1.50;;;28.70;87.00;29.40;97064.00;;;;5062295;28;20203;-69
2022/08/02 12:24:30;;;;;;;1.73;1.57;;;28.40;88.80;29.50;97056.00;;;;5067713;28;20233;-70
2022/08/02 12:27:34;;;;;;;2.30;1.57;;;28.20;89.60;28.00;97055.00;;;;5058791;28;20881;-67
2022/08/02 12:30:25;;;;;;;2.63;1.40;;;27.80;90.80;27.70;97056.00;;;;5058707;28;20211;-70
2022/08/02 12:33:14;;;;;;;1.70;1.60;;;27.30;91.70;27.30;97059.00;;;;5063345;28;20290;-70
2022/08/02 12:36:16;;;;;;;2.00;1.88;;;26.90;92.40;27.50;97061.00;;;;5062328;28;20401;-67
2022/08/02 12:39:13;;;;;;;1.80;1.70;;;26.70;93.70;27.60;97068.00;;;;5060341;28;20342;-67
2022/08/02 12:42:03;;;;;;;1.50;1.40;;;26.50;93.70;27.90;97057.00;;;;5059450;28;20670;-69
2022/08/02 12:44:54;;;;;;;1.53;1.40;;;26.40;94.30;27.80;97054.00;;;;5065454;28;20301;-69